createdAt,value
2023-04-22T00:03:50.351Z,86.99
2023-04-22T00:08:54.562Z,87.42
2023-04-22T00:13:58.668Z,87.33
2023-04-22T00:19:02.201Z,87.08
2023-04-22T00:24:05.445Z,86.83
2023-04-22T00:29:09.091Z,86.22
2023-04-22T00:34:13.206Z,86.30
2023-04-22T00:39:16.954Z,86.32
2023-04-22T00:44:22.001Z,86.73
2023-04-22T00:49:28.356Z,87.64
2023-04-22T00:54:32.928Z,87.35
2023-04-22T00:59:37.421Z,87.35
2023-04-22T01:04:42.729Z,87.63
2023-04-22T01:09:46.743Z,87.93
2023-04-22T01:14:50.562Z,88.78
2023-04-22T01:19:55.975Z,88.77
2023-04-22T01:24:59.510Z,89.10
2023-04-22T01:30:03.410Z,89.33
2023-04-22T01:35:09.207Z,89.27
2023-04-22T01:40:14.847Z,89.40
2023-04-22T01:45:19.410Z,90.08
2023-04-22T01:50:23.771Z,90.57
2023-04-22T01:55:27.332Z,90.94
2023-04-22T02:00:31.044Z,91.31
2023-04-22T02:05:34.668Z,91.38
2023-04-22T02:10:38.065Z,91.52
2023-04-22T02:15:41.767Z,91.37
2023-04-22T02:20:45.203Z,92.17
2023-04-22T02:25:53.508Z,92.32
2023-04-22T02:30:57.414Z,92.95
2023-04-22T02:36:01.117Z,92.89
2023-04-22T02:41:04.502Z,93.74
2023-04-22T02:46:08.065Z,93.92
2023-04-22T02:51:12.177Z,94.17
2023-04-22T02:56:16.047Z,94.48
2023-04-22T03:01:19.909Z,94.35
2023-04-22T03:06:23.737Z,94.63
2023-04-22T03:11:27.724Z,94.76
2023-04-22T03:16:31.957Z,93.90
2023-04-22T03:21:40.100Z,92.92
2023-04-22T03:26:43.914Z,92.80
2023-04-22T03:31:47.727Z,93.15
2023-04-22T03:36:51.590Z,93.54
2023-04-22T03:41:56.338Z,94.04
2023-04-22T03:47:00.174Z,94.31
2023-04-22T03:52:10.858Z,94.42
2023-04-22T03:57:19.263Z,95.08
2023-04-22T04:02:23.942Z,95.76
2023-04-22T04:07:27.312Z,95.49
2023-04-22T04:12:31.337Z,94.84
2023-04-22T04:17:35.754Z,94.58
2023-04-22T04:22:41.659Z,94.76
2023-04-22T04:27:46.870Z,94.05
2023-04-22T04:32:51.688Z,92.73
2023-04-22T04:37:55.685Z,91.91
2023-04-22T04:43:02.709Z,90.83
2023-04-22T04:48:13.208Z,89.60
2023-04-22T04:53:20.797Z,88.21
2023-04-22T04:58:25.067Z,86.66
2023-04-22T05:03:43.093Z,86.04
2023-04-22T05:08:49.366Z,84.96
2023-04-22T05:13:53.123Z,84.31
2023-04-22T05:21:47.457Z,82.19
2023-04-22T05:26:55.802Z,81.23
2023-04-22T05:35:41.083Z,79.93
2023-04-22T05:40:46.050Z,76.73
2023-04-22T05:45:51.776Z,75.50
2023-04-22T05:50:57.474Z,73.69
2023-04-22T05:56:03.713Z,71.48
2023-04-22T06:01:17.943Z,70.80
2023-04-22T06:06:38.371Z,71.92
2023-04-22T06:11:42.136Z,72.35
2023-04-22T06:16:45.851Z,70.76
2023-04-22T06:21:56.786Z,63.51
2023-04-22T06:27:02.465Z,54.04
2023-04-22T06:32:06.873Z,52.73
2023-04-22T06:37:10.880Z,47.26
2023-04-22T06:42:15.718Z,43.83
2023-04-22T06:47:45.807Z,42.18
2023-04-22T06:52:52.045Z,42.03
2023-04-22T06:57:55.729Z,42.28
2023-04-22T07:02:59.848Z,39.75
2023-04-22T07:08:03.141Z,44.73
2023-04-22T07:13:07.126Z,43.25
2023-04-22T07:18:11.228Z,45.10
2023-04-22T07:23:14.986Z,43.46
2023-04-22T07:28:19.118Z,45.03
2023-04-22T07:33:22.865Z,42.60
2023-04-22T07:38:27.206Z,41.55
2023-04-22T07:43:30.886Z,40.15
2023-04-22T07:48:34.000Z,39.84
2023-04-22T07:53:37.540Z,39.60
2023-04-22T07:58:41.032Z,39.37
2023-04-22T08:03:44.976Z,41.44
2023-04-22T08:08:48.729Z,38.81
2023-04-22T08:13:52.538Z,39.02
2023-04-22T08:18:57.772Z,39.21
2023-04-22T08:24:01.359Z,42.03
2023-04-22T08:29:26.694Z,44.70
2023-04-22T08:34:29.806Z,45.42
2023-04-22T08:39:33.012Z,46.33
2023-04-22T08:44:38.244Z,47.16
2023-04-22T08:49:43.998Z,46.42
2023-04-22T08:54:47.199Z,48.46
2023-04-22T08:59:52.025Z,44.44
2023-04-22T09:04:55.814Z,42.92
2023-04-22T09:09:59.505Z,40.81
2023-04-22T09:15:03.827Z,38.18
2023-04-22T09:20:10.027Z,40.10
2023-04-22T09:25:36.349Z,40.90
2023-04-22T09:30:39.583Z,41.68
2023-04-22T09:35:45.175Z,38.55
2023-04-22T09:40:49.427Z,36.48
2023-04-22T09:45:53.777Z,38.39
2023-04-22T09:50:58.160Z,35.13
2023-04-22T09:56:05.354Z,33.73
2023-04-22T10:01:09.098Z,34.63
2023-04-22T10:06:12.792Z,32.77
2023-04-22T10:11:16.966Z,33.08
2023-04-22T10:16:26.052Z,31.59
2023-04-22T10:21:32.614Z,32.83
2023-04-22T10:26:56.960Z,32.38
2023-04-22T10:32:25.813Z,35.67
2023-04-22T10:37:28.870Z,31.31
2023-04-22T10:42:32.489Z,30.46
2023-04-22T10:47:37.786Z,31.61
2023-04-22T10:52:45.469Z,35.99
2023-04-22T10:57:51.401Z,32.82
2023-04-22T11:03:18.635Z,33.11
2023-04-22T11:08:24.110Z,32.09
2023-04-22T11:13:30.240Z,33.24
2023-04-22T11:18:33.824Z,30.63
2023-04-22T11:23:37.928Z,32.80
2023-04-22T11:28:48.793Z,33.83
2023-04-22T11:33:52.475Z,34.99
2023-04-22T11:38:57.556Z,36.39
2023-04-22T11:44:02.038Z,36.40
2023-04-22T11:49:34.858Z,35.27
2023-04-22T11:54:39.109Z,34.78
2023-04-22T11:59:43.430Z,36.76
2023-04-22T12:04:47.726Z,35.35
2023-04-22T12:09:55.177Z,32.94
2023-04-22T12:14:58.421Z,34.75
2023-04-22T12:20:01.610Z,36.81
2023-04-22T12:25:05.266Z,37.00
2023-04-22T12:30:09.247Z,38.67
2023-04-22T12:35:12.986Z,35.50
2023-04-22T12:40:17.057Z,34.80
2023-04-22T12:45:20.974Z,33.86
2023-04-22T12:50:24.253Z,36.51
2023-04-22T12:55:28.557Z,38.25
2023-04-22T13:00:32.107Z,36.59
2023-04-22T13:05:35.918Z,37.87
2023-04-22T13:10:39.014Z,39.80
2023-04-22T13:15:42.512Z,41.08
2023-04-22T13:20:46.599Z,40.98
2023-04-22T13:25:51.126Z,42.15
2023-04-22T13:30:55.615Z,44.47
2023-04-22T13:35:59.040Z,43.98
2023-04-22T13:41:03.448Z,41.94
2023-04-22T13:46:07.192Z,43.67
2023-04-22T13:51:11.090Z,42.93
2023-04-22T13:56:16.033Z,42.33
2023-04-22T14:01:21.459Z,43.21
2023-04-22T14:06:27.560Z,42.19
2023-04-22T14:11:31.536Z,40.33
2023-04-22T14:16:35.404Z,39.23
2023-04-22T14:21:38.711Z,36.96
2023-04-22T14:26:42.752Z,38.21
2023-04-22T14:31:46.931Z,35.67
2023-04-22T14:36:50.810Z,35.97
2023-04-22T14:41:54.833Z,36.94
2023-04-22T14:46:58.024Z,35.87
2023-04-22T14:52:01.801Z,37.41
2023-04-22T14:57:06.013Z,37.12
2023-04-22T15:02:16.119Z,36.53
2023-04-22T15:12:23.816Z,35.69
2023-04-22T15:17:27.720Z,36.48
2023-04-22T15:22:33.000Z,36.70
2023-04-22T15:27:36.613Z,38.06
2023-04-22T15:32:39.692Z,36.93
2023-04-22T15:37:43.651Z,37.93
2023-04-22T15:42:47.596Z,39.46
2023-04-22T15:47:52.641Z,38.82
2023-04-22T15:52:56.409Z,39.35
2023-04-22T15:57:59.961Z,38.57
2023-04-22T16:03:03.742Z,38.40
2023-04-22T16:08:07.358Z,39.59
2023-04-22T16:13:10.973Z,41.29
2023-04-22T16:18:15.078Z,40.69
2023-04-22T16:23:18.742Z,41.34
2023-04-22T16:28:22.882Z,42.35
2023-04-22T16:33:26.326Z,42.83
2023-04-22T16:38:29.500Z,44.33
2023-04-22T16:43:33.318Z,43.97
2023-04-22T16:48:37.415Z,45.83
2023-04-22T16:53:41.442Z,46.54
2023-04-22T16:58:45.373Z,46.96
2023-04-22T17:03:49.028Z,53.94
2023-04-22T17:08:52.795Z,51.29
2023-04-22T17:13:56.276Z,51.67
2023-04-22T17:19:00.039Z,53.51
2023-04-22T17:24:06.151Z,54.74
2023-04-22T17:29:09.676Z,56.15
2023-04-22T17:34:13.936Z,55.34
2023-04-22T17:39:17.344Z,58.04
2023-04-22T17:44:20.688Z,58.51
2023-04-22T17:49:24.313Z,61.44
2023-04-22T17:54:27.819Z,62.34
2023-04-22T17:59:31.946Z,63.23
2023-04-22T18:04:36.042Z,63.75
2023-04-22T18:09:39.918Z,64.82
2023-04-22T18:14:43.966Z,63.68
2023-04-22T18:19:51.322Z,64.76
2023-04-22T18:24:54.640Z,66.12
2023-04-22T18:29:58.051Z,65.67
2023-04-22T18:35:01.645Z,67.45
2023-04-22T18:40:06.688Z,67.31
2023-04-22T18:45:10.567Z,68.62
2023-04-22T18:50:14.696Z,68.79
2023-04-22T18:55:18.681Z,69.80
2023-04-22T19:00:22.315Z,70.34
2023-04-22T19:05:26.556Z,70.60
2023-04-22T19:10:30.171Z,70.92
2023-04-22T19:15:33.635Z,71.26
2023-04-22T19:20:37.214Z,71.55
2023-04-22T19:25:40.738Z,72.14
2023-04-22T19:30:44.543Z,72.86
2023-04-22T19:35:47.967Z,74.60
2023-04-22T19:40:51.602Z,75.90
2023-04-22T19:45:55.254Z,77.00
2023-04-22T19:51:00.047Z,78.25
2023-04-22T19:56:04.188Z,79.07
2023-04-22T20:01:07.931Z,79.93
2023-04-22T20:06:15.320Z,80.41
2023-04-22T20:11:19.310Z,80.92
2023-04-22T20:16:24.212Z,80.62
2023-04-22T20:21:29.572Z,81.01
2023-04-22T20:26:33.644Z,81.97
2023-04-22T20:31:37.453Z,82.12
2023-04-22T20:36:41.116Z,83.15
2023-04-22T20:41:46.056Z,84.00
2023-04-22T20:46:49.061Z,84.76
2023-04-22T20:51:53.382Z,85.65
2023-04-22T20:56:58.012Z,86.21
2023-04-22T21:02:04.493Z,87.18
2023-04-22T21:07:12.508Z,87.61
2023-04-22T21:12:17.702Z,87.89
2023-04-22T21:17:25.720Z,88.23
2023-04-22T21:22:30.036Z,88.82
2023-04-22T21:27:35.547Z,89.28
2023-04-22T21:32:40.943Z,89.31
2023-04-22T21:37:44.116Z,89.67
2023-04-22T21:42:48.889Z,90.46
2023-04-22T21:47:53.081Z,90.28
2023-04-22T21:52:57.948Z,90.99
2023-04-22T21:58:00.982Z,91.28
2023-04-22T22:03:04.709Z,91.54
2023-04-22T22:08:08.661Z,91.95
2023-04-22T22:13:12.179Z,91.56
2023-04-22T22:18:15.922Z,91.98
2023-04-22T22:23:21.674Z,92.54
2023-04-22T22:28:25.918Z,92.91
2023-04-22T22:33:30.063Z,93.49
2023-04-22T22:38:33.246Z,93.59
2023-04-22T22:43:37.400Z,93.82
2023-04-22T22:48:40.596Z,93.86
2023-04-22T22:53:44.384Z,94.01
2023-04-22T22:58:48.664Z,94.28
2023-04-22T23:03:52.770Z,94.21
2023-04-22T23:08:57.378Z,93.72
2023-04-22T23:14:02.878Z,93.77
2023-04-22T23:19:07.076Z,93.11
2023-04-22T23:24:12.802Z,92.95
2023-04-22T23:29:17.342Z,92.50
2023-04-22T23:34:24.382Z,92.26
2023-04-22T23:39:28.048Z,91.97
2023-04-22T23:44:31.781Z,91.81
2023-04-22T23:49:35.422Z,91.98
2023-04-22T23:54:40.398Z,92.18
2023-04-22T23:59:45.087Z,91.57
